sensor_id;sensor_type;location;lat;lon;timestamp;P1;durP1;ratioP1;P2;durP2;ratioP2
69081;SDS011;69029;51.986;5.760;2023-07-22T00:00:20;6.07;;;4.93;;
69081;SDS011;69029;51.986;5.760;2023-07-22T00:02:47;7.15;;;4.65;;
69081;SDS011;69029;51.986;5.760;2023-07-22T00:05:13;7.88;;;4.88;;
69081;SDS011;69029;51.986;5.760;2023-07-22T00:07:45;7.25;;;4.80;;
69081;SDS011;69029;51.986;5.760;2023-07-22T00:10:10;6.07;;;4.50;;
69081;SDS011;69029;51.986;5.760;2023-07-22T00:12:36;6.70;;;4.78;;
69081;SDS011;69029;51.986;5.760;2023-07-22T00:15:02;8.43;;;5.10;;
69081;SDS011;69029;51.986;5.760;2023-07-22T00:17:28;8.77;;;5.47;;
69081;SDS011;69029;51.986;5.760;2023-07-22T00:19:54;7.13;;;5.03;;
69081;SDS011;69029;51.986;5.760;2023-07-22T00:22:20;9.40;;;5.53;;
69081;SDS011;69029;51.986;5.760;2023-07-22T00:24:46;6.80;;;4.72;;
69081;SDS011;69029;51.986;5.760;2023-07-22T00:27:12;9.88;;;5.05;;
69081;SDS011;69029;51.986;5.760;2023-07-22T00:29:38;7.05;;;4.88;;
69081;SDS011;69029;51.986;5.760;2023-07-22T00:32:07;13.40;;;5.68;;
69081;SDS011;69029;51.986;5.760;2023-07-22T00:34:33;9.30;;;5.53;;
69081;SDS011;69029;51.986;5.760;2023-07-22T00:36:59;6.95;;;5.20;;
69081;SDS011;69029;51.986;5.760;2023-07-22T00:39:25;6.82;;;4.65;;
69081;SDS011;69029;51.986;5.760;2023-07-22T00:41:50;9.40;;;5.30;;
69081;SDS011;69029;51.986;5.760;2023-07-22T00:44:16;6.70;;;5.10;;
69081;SDS011;69029;51.986;5.760;2023-07-22T00:46:42;8.93;;;5.65;;
69081;SDS011;69029;51.986;5.760;2023-07-22T00:49:07;8.27;;;5.47;;
69081;SDS011;69029;51.986;5.760;2023-07-22T00:51:34;9.30;;;5.35;;
69081;SDS011;69029;51.986;5.760;2023-07-22T00:54:00;10.15;;;5.53;;
69081;SDS011;69029;51.986;5.760;2023-07-22T00:56:26;7.47;;;5.15;;
69081;SDS011;69029;51.986;5.760;2023-07-22T00:58:52;8.77;;;5.63;;
69081;SDS011;69029;51.986;5.760;2023-07-22T01:01:22;7.30;;;5.15;;
69081;SDS011;69029;51.986;5.760;2023-07-22T01:03:47;8.23;;;5.10;;
69081;SDS011;69029;51.986;5.760;2023-07-22T01:06:13;7.60;;;5.00;;
69081;SDS011;69029;51.986;5.760;2023-07-22T01:08:39;8.10;;;5.05;;
69081;SDS011;69029;51.986;5.760;2023-07-22T01:11:05;6.70;;;4.95;;
69081;SDS011;69029;51.986;5.760;2023-07-22T01:13:35;8.10;;;5.32;;
69081;SDS011;69029;51.986;5.760;2023-07-22T01:16:08;8.68;;;5.20;;
69081;SDS011;69029;51.986;5.760;2023-07-22T01:18:34;7.43;;;5.45;;
69081;SDS011;69029;51.986;5.760;2023-07-22T01:21:00;9.38;;;5.63;;
69081;SDS011;69029;51.986;5.760;2023-07-22T01:23:26;10.93;;;5.72;;
69081;SDS011;69029;51.986;5.760;2023-07-22T01:25:52;8.68;;;5.80;;
69081;SDS011;69029;51.986;5.760;2023-07-22T01:28:20;10.77;;;6.68;;
69081;SDS011;69029;51.986;5.760;2023-07-22T01:30:46;8.80;;;5.60;;
69081;SDS011;69029;51.986;5.760;2023-07-22T01:33:13;9.23;;;6.07;;
69081;SDS011;69029;51.986;5.760;2023-07-22T01:35:39;8.55;;;5.30;;
69081;SDS011;69029;51.986;5.760;2023-07-22T01:38:05;9.65;;;5.75;;
69081;SDS011;69029;51.986;5.760;2023-07-22T01:40:33;8.80;;;6.20;;
69081;SDS011;69029;51.986;5.760;2023-07-22T01:42:58;7.85;;;5.45;;
69081;SDS011;69029;51.986;5.760;2023-07-22T01:45:24;9.38;;;6.47;;
69081;SDS011;69029;51.986;5.760;2023-07-22T01:47:50;9.90;;;6.32;;
69081;SDS011;69029;51.986;5.760;2023-07-22T01:50:16;9.65;;;6.55;;
69081;SDS011;69029;51.986;5.760;2023-07-22T01:52:43;11.20;;;6.70;;
69081;SDS011;69029;51.986;5.760;2023-07-22T01:55:11;9.65;;;6.40;;
69081;SDS011;69029;51.986;5.760;2023-07-22T01:57:38;11.88;;;7.75;;
69081;SDS011;69029;51.986;5.760;2023-07-22T02:00:05;9.73;;;6.78;;
69081;SDS011;69029;51.986;5.760;2023-07-22T02:02:32;11.98;;;7.18;;
69081;SDS011;69029;51.986;5.760;2023-07-22T02:04:58;11.73;;;6.95;;
69081;SDS011;69029;51.986;5.760;2023-07-22T02:07:23;13.13;;;7.75;;
69081;SDS011;69029;51.986;5.760;2023-07-22T02:09:51;14.10;;;8.40;;
69081;SDS011;69029;51.986;5.760;2023-07-22T02:12:17;17.13;;;8.25;;
69081;SDS011;69029;51.986;5.760;2023-07-22T02:14:45;13.32;;;8.05;;
69081;SDS011;69029;51.986;5.760;2023-07-22T02:17:10;12.90;;;8.13;;
69081;SDS011;69029;51.986;5.760;2023-07-22T02:19:36;14.60;;;7.85;;
69081;SDS011;69029;51.986;5.760;2023-07-22T02:22:03;14.35;;;8.82;;
69081;SDS011;69029;51.986;5.760;2023-07-22T02:24:31;14.68;;;7.88;;
69081;SDS011;69029;51.986;5.760;2023-07-22T02:26:57;14.98;;;9.30;;
69081;SDS011;69029;51.986;5.760;2023-07-22T02:29:25;17.83;;;9.40;;
69081;SDS011;69029;51.986;5.760;2023-07-22T02:31:50;15.43;;;8.75;;
69081;SDS011;69029;51.986;5.760;2023-07-22T02:34:16;18.17;;;9.85;;
69081;SDS011;69029;51.986;5.760;2023-07-22T02:36:42;14.75;;;9.50;;
69081;SDS011;69029;51.986;5.760;2023-07-22T02:39:07;16.27;;;9.73;;
69081;SDS011;69029;51.986;5.760;2023-07-22T02:41:35;17.38;;;8.38;;
69081;SDS011;69029;51.986;5.760;2023-07-22T02:44:01;13.82;;;8.65;;
69081;SDS011;69029;51.986;5.760;2023-07-22T02:46:28;17.70;;;9.88;;
69081;SDS011;69029;51.986;5.760;2023-07-22T02:48:58;14.82;;;9.50;;
69081;SDS011;69029;51.986;5.760;2023-07-22T02:51:24;17.98;;;10.32;;
69081;SDS011;69029;51.986;5.760;2023-07-22T02:53:50;15.43;;;9.63;;
69081;SDS011;69029;51.986;5.760;2023-07-22T02:56:27;15.52;;;9.95;;
69081;SDS011;69029;51.986;5.760;2023-07-22T02:58:52;16.52;;;9.35;;
69081;SDS011;69029;51.986;5.760;2023-07-22T03:01:18;15.85;;;10.15;;
69081;SDS011;69029;51.986;5.760;2023-07-22T03:03:44;21.15;;;10.15;;
69081;SDS011;69029;51.986;5.760;2023-07-22T03:06:09;18.00;;;10.57;;
69081;SDS011;69029;51.986;5.760;2023-07-22T03:08:35;17.42;;;10.13;;
69081;SDS011;69029;51.986;5.760;2023-07-22T03:11:01;15.20;;;9.88;;
69081;SDS011;69029;51.986;5.760;2023-07-22T03:13:28;16.10;;;10.23;;
69081;SDS011;69029;51.986;5.760;2023-07-22T03:15:54;19.55;;;10.52;;
69081;SDS011;69029;51.986;5.760;2023-07-22T03:18:24;24.40;;;10.93;;
69081;SDS011;69029;51.986;5.760;2023-07-22T03:20:50;18.05;;;11.05;;
69081;SDS011;69029;51.986;5.760;2023-07-22T03:23:16;17.70;;;10.90;;
69081;SDS011;69029;51.986;5.760;2023-07-22T03:25:42;19.63;;;11.00;;
69081;SDS011;69029;51.986;5.760;2023-07-22T03:28:08;17.58;;;10.85;;
69081;SDS011;69029;51.986;5.760;2023-07-22T03:30:33;18.95;;;11.23;;
69081;SDS011;69029;51.986;5.760;2023-07-22T03:33:00;21.38;;;10.68;;
69081;SDS011;69029;51.986;5.760;2023-07-22T03:35:26;18.50;;;10.45;;
69081;SDS011;69029;51.986;5.760;2023-07-22T03:37:53;19.02;;;10.23;;
69081;SDS011;69029;51.986;5.760;2023-07-22T03:40:19;19.80;;;10.93;;
69081;SDS011;69029;51.986;5.760;2023-07-22T03:42:51;18.33;;;10.40;;
69081;SDS011;69029;51.986;5.760;2023-07-22T03:45:18;18.55;;;10.65;;
69081;SDS011;69029;51.986;5.760;2023-07-22T03:47:46;17.63;;;10.75;;
69081;SDS011;69029;51.986;5.760;2023-07-22T03:50:15;24.40;;;11.88;;
69081;SDS011;69029;51.986;5.760;2023-07-22T03:52:40;19.52;;;11.43;;
69081;SDS011;69029;51.986;5.760;2023-07-22T03:55:06;22.20;;;10.75;;
69081;SDS011;69029;51.986;5.760;2023-07-22T03:57:32;20.60;;;10.95;;
69081;SDS011;69029;51.986;5.760;2023-07-22T03:59:57;19.58;;;11.35;;
69081;SDS011;69029;51.986;5.760;2023-07-22T04:02:23;22.65;;;11.50;;
69081;SDS011;69029;51.986;5.760;2023-07-22T04:04:50;20.17;;;11.32;;
69081;SDS011;69029;51.986;5.760;2023-07-22T04:07:16;20.80;;;11.30;;
69081;SDS011;69029;51.986;5.760;2023-07-22T04:09:43;21.67;;;11.75;;
69081;SDS011;69029;51.986;5.760;2023-07-22T04:12:10;25.17;;;12.13;;
69081;SDS011;69029;51.986;5.760;2023-07-22T04:14:36;19.90;;;11.88;;
69081;SDS011;69029;51.986;5.760;2023-07-22T04:17:02;20.95;;;11.60;;
69081;SDS011;69029;51.986;5.760;2023-07-22T04:19:29;20.48;;;11.23;;
69081;SDS011;69029;51.986;5.760;2023-07-22T04:21:55;21.00;;;11.80;;
69081;SDS011;69029;51.986;5.760;2023-07-22T04:24:21;23.63;;;12.18;;
69081;SDS011;69029;51.986;5.760;2023-07-22T04:26:47;21.52;;;12.35;;
69081;SDS011;69029;51.986;5.760;2023-07-22T04:29:12;21.67;;;11.85;;
69081;SDS011;69029;51.986;5.760;2023-07-22T04:31:38;19.50;;;11.93;;
69081;SDS011;69029;51.986;5.760;2023-07-22T04:34:04;21.88;;;12.20;;
69081;SDS011;69029;51.986;5.760;2023-07-22T04:36:30;26.15;;;11.82;;
69081;SDS011;69029;51.986;5.760;2023-07-22T04:38:56;21.42;;;12.13;;
69081;SDS011;69029;51.986;5.760;2023-07-22T04:41:22;20.92;;;11.90;;
69081;SDS011;69029;51.986;5.760;2023-07-22T04:43:47;22.70;;;11.88;;
69081;SDS011;69029;51.986;5.760;2023-07-22T04:46:15;18.40;;;10.90;;
69081;SDS011;69029;51.986;5.760;2023-07-22T04:48:43;27.65;;;13.07;;
69081;SDS011;69029;51.986;5.760;2023-07-22T04:51:08;24.27;;;11.68;;
69081;SDS011;69029;51.986;5.760;2023-07-22T04:53:34;23.02;;;12.27;;
69081;SDS011;69029;51.986;5.760;2023-07-22T04:56:03;20.98;;;11.93;;
69081;SDS011;69029;51.986;5.760;2023-07-22T04:58:28;27.05;;;12.73;;
69081;SDS011;69029;51.986;5.760;2023-07-22T05:00:55;26.30;;;11.90;;
69081;SDS011;69029;51.986;5.760;2023-07-22T05:03:23;21.58;;;12.07;;
69081;SDS011;69029;51.986;5.760;2023-07-22T05:05:51;22.65;;;12.35;;
69081;SDS011;69029;51.986;5.760;2023-07-22T05:08:17;22.08;;;12.05;;
69081;SDS011;69029;51.986;5.760;2023-07-22T05:10:43;26.10;;;12.48;;
69081;SDS011;69029;51.986;5.760;2023-07-22T05:13:08;24.00;;;12.65;;
69081;SDS011;69029;51.986;5.760;2023-07-22T05:15:34;24.33;;;12.32;;
69081;SDS011;69029;51.986;5.760;2023-07-22T05:17:59;24.05;;;12.48;;
69081;SDS011;69029;51.986;5.760;2023-07-22T05:20:25;26.30;;;13.00;;
69081;SDS011;69029;51.986;5.760;2023-07-22T05:22:51;22.42;;;11.90;;
69081;SDS011;69029;51.986;5.760;2023-07-22T05:25:17;23.60;;;12.93;;
69081;SDS011;69029;51.986;5.760;2023-07-22T05:27:42;26.05;;;12.98;;
69081;SDS011;69029;51.986;5.760;2023-07-22T05:30:08;25.05;;;12.93;;
69081;SDS011;69029;51.986;5.760;2023-07-22T05:32:35;22.13;;;12.32;;
69081;SDS011;69029;51.986;5.760;2023-07-22T05:35:01;25.15;;;12.63;;
69081;SDS011;69029;51.986;5.760;2023-07-22T05:37:30;25.58;;;14.18;;
69081;SDS011;69029;51.986;5.760;2023-07-22T05:40:01;25.13;;;13.05;;
69081;SDS011;69029;51.986;5.760;2023-07-22T05:42:27;24.13;;;13.07;;
69081;SDS011;69029;51.986;5.760;2023-07-22T05:44:57;27.45;;;13.57;;
69081;SDS011;69029;51.986;5.760;2023-07-22T05:47:23;26.88;;;14.27;;
69081;SDS011;69029;51.986;5.760;2023-07-22T05:49:48;27.45;;;14.38;;
69081;SDS011;69029;51.986;5.760;2023-07-22T05:52:14;28.08;;;13.52;;
69081;SDS011;69029;51.986;5.760;2023-07-22T05:54:40;27.05;;;13.57;;
69081;SDS011;69029;51.986;5.760;2023-07-22T05:57:05;26.48;;;14.07;;
69081;SDS011;69029;51.986;5.760;2023-07-22T05:59:31;28.10;;;14.15;;
69081;SDS011;69029;51.986;5.760;2023-07-22T06:01:57;24.73;;;13.27;;
69081;SDS011;69029;51.986;5.760;2023-07-22T06:04:22;26.13;;;13.75;;
69081;SDS011;69029;51.986;5.760;2023-07-22T06:06:48;25.85;;;13.80;;
69081;SDS011;69029;51.986;5.760;2023-07-22T06:09:14;29.48;;;14.98;;
69081;SDS011;69029;51.986;5.760;2023-07-22T06:11:39;25.55;;;13.05;;
69081;SDS011;69029;51.986;5.760;2023-07-22T06:14:05;27.80;;;14.57;;
69081;SDS011;69029;51.986;5.760;2023-07-22T06:16:31;24.90;;;13.65;;
69081;SDS011;69029;51.986;5.760;2023-07-22T06:18:57;25.45;;;14.02;;
69081;SDS011;69029;51.986;5.760;2023-07-22T06:21:23;26.23;;;14.00;;
69081;SDS011;69029;51.986;5.760;2023-07-22T06:23:48;24.75;;;13.60;;
69081;SDS011;69029;51.986;5.760;2023-07-22T06:26:15;22.58;;;13.48;;
69081;SDS011;69029;51.986;5.760;2023-07-22T06:28:41;31.00;;;13.85;;
69081;SDS011;69029;51.986;5.760;2023-07-22T06:31:07;26.10;;;13.63;;
69081;SDS011;69029;51.986;5.760;2023-07-22T06:33:32;26.58;;;13.02;;
69081;SDS011;69029;51.986;5.760;2023-07-22T06:35:58;21.60;;;12.85;;
69081;SDS011;69029;51.986;5.760;2023-07-22T06:38:24;25.63;;;12.98;;
69081;SDS011;69029;51.986;5.760;2023-07-22T06:40:52;23.02;;;13.52;;
69081;SDS011;69029;51.986;5.760;2023-07-22T06:43:18;25.55;;;14.02;;
69081;SDS011;69029;51.986;5.760;2023-07-22T06:45:44;24.95;;;12.90;;
69081;SDS011;69029;51.986;5.760;2023-07-22T06:48:09;23.83;;;11.38;;
69081;SDS011;69029;51.986;5.760;2023-07-22T06:50:35;22.65;;;12.45;;
69081;SDS011;69029;51.986;5.760;2023-07-22T06:53:01;21.65;;;12.27;;
69081;SDS011;69029;51.986;5.760;2023-07-22T06:55:27;27.13;;;12.30;;
69081;SDS011;69029;51.986;5.760;2023-07-22T06:57:55;26.70;;;12.52;;
69081;SDS011;69029;51.986;5.760;2023-07-22T07:00:21;22.73;;;11.98;;
69081;SDS011;69029;51.986;5.760;2023-07-22T07:02:46;24.80;;;12.02;;
69081;SDS011;69029;51.986;5.760;2023-07-22T07:05:12;24.02;;;11.73;;
69081;SDS011;69029;51.986;5.760;2023-07-22T07:07:38;21.85;;;11.95;;
69081;SDS011;69029;51.986;5.760;2023-07-22T07:10:04;21.88;;;11.70;;
69081;SDS011;69029;51.986;5.760;2023-07-22T07:12:31;21.80;;;11.10;;
69081;SDS011;69029;51.986;5.760;2023-07-22T07:14:56;22.65;;;11.50;;
69081;SDS011;69029;51.986;5.760;2023-07-22T07:17:22;22.55;;;11.02;;
69081;SDS011;69029;51.986;5.760;2023-07-22T07:19:48;21.33;;;11.70;;
69081;SDS011;69029;51.986;5.760;2023-07-22T07:22:14;21.05;;;11.90;;
69081;SDS011;69029;51.986;5.760;2023-07-22T07:24:41;21.35;;;11.90;;
69081;SDS011;69029;51.986;5.760;2023-07-22T07:27:09;26.02;;;11.75;;
69081;SDS011;69029;51.986;5.760;2023-07-22T07:29:35;21.88;;;11.55;;
69081;SDS011;69029;51.986;5.760;2023-07-22T07:32:01;22.02;;;12.07;;
69081;SDS011;69029;51.986;5.760;2023-07-22T07:34:27;21.08;;;12.00;;
69081;SDS011;69029;51.986;5.760;2023-07-22T07:36:52;23.77;;;11.35;;
69081;SDS011;69029;51.986;5.760;2023-07-22T07:39:18;27.48;;;11.20;;
69081;SDS011;69029;51.986;5.760;2023-07-22T07:41:44;23.60;;;11.30;;
69081;SDS011;69029;51.986;5.760;2023-07-22T07:44:09;24.67;;;11.88;;
69081;SDS011;69029;51.986;5.760;2023-07-22T07:46:35;19.15;;;10.40;;
69081;SDS011;69029;51.986;5.760;2023-07-22T07:49:01;19.00;;;10.45;;
69081;SDS011;69029;51.986;5.760;2023-07-22T07:51:28;16.65;;;10.48;;
69081;SDS011;69029;51.986;5.760;2023-07-22T07:53:55;20.23;;;10.98;;
69081;SDS011;69029;51.986;5.760;2023-07-22T07:56:21;20.20;;;10.57;;
69081;SDS011;69029;51.986;5.760;2023-07-22T07:58:49;17.80;;;9.93;;
69081;SDS011;69029;51.986;5.760;2023-07-22T08:01:15;16.50;;;9.23;;
69081;SDS011;69029;51.986;5.760;2023-07-22T08:03:42;14.07;;;8.68;;
69081;SDS011;69029;51.986;5.760;2023-07-22T08:06:08;17.60;;;8.60;;
69081;SDS011;69029;51.986;5.760;2023-07-22T08:08:35;21.50;;;8.90;;
69081;SDS011;69029;51.986;5.760;2023-07-22T08:11:03;16.02;;;8.48;;
69081;SDS011;69029;51.986;5.760;2023-07-22T08:13:30;15.73;;;8.50;;
69081;SDS011;69029;51.986;5.760;2023-07-22T08:16:07;17.15;;;8.55;;
69081;SDS011;69029;51.986;5.760;2023-07-22T08:18:34;13.57;;;8.20;;
69081;SDS011;69029;51.986;5.760;2023-07-22T08:21:00;16.35;;;7.53;;
69081;SDS011;69029;51.986;5.760;2023-07-22T08:23:31;14.38;;;7.75;;
69081;SDS011;69029;51.986;5.760;2023-07-22T08:25:57;13.32;;;7.40;;
69081;SDS011;69029;51.986;5.760;2023-07-22T08:28:23;15.95;;;7.80;;
69081;SDS011;69029;51.986;5.760;2023-07-22T08:30:50;14.27;;;8.23;;
69081;SDS011;69029;51.986;5.760;2023-07-22T08:33:18;12.45;;;7.97;;
69081;SDS011;69029;51.986;5.760;2023-07-22T08:35:44;14.82;;;7.20;;
69081;SDS011;69029;51.986;5.760;2023-07-22T08:38:12;10.68;;;6.97;;
69081;SDS011;69029;51.986;5.760;2023-07-22T08:40:39;12.73;;;6.60;;
69081;SDS011;69029;51.986;5.760;2023-07-22T08:43:10;13.05;;;7.13;;
69081;SDS011;69029;51.986;5.760;2023-07-22T08:45:37;15.77;;;7.78;;
69081;SDS011;69029;51.986;5.760;2023-07-22T08:48:04;14.15;;;7.95;;
69081;SDS011;69029;51.986;5.760;2023-07-22T08:50:45;13.70;;;8.07;;
69081;SDS011;69029;51.986;5.760;2023-07-22T08:53:20;12.57;;;7.75;;
69081;SDS011;69029;51.986;5.760;2023-07-22T08:55:46;13.27;;;7.60;;
69081;SDS011;69029;51.986;5.760;2023-07-22T08:58:20;14.13;;;7.60;;
69081;SDS011;69029;51.986;5.760;2023-07-22T09:00:47;16.60;;;8.02;;
69081;SDS011;69029;51.986;5.760;2023-07-22T09:03:13;16.50;;;6.93;;
69081;SDS011;69029;51.986;5.760;2023-07-22T09:05:39;13.80;;;6.40;;
69081;SDS011;69029;51.986;5.760;2023-07-22T09:08:07;10.20;;;6.57;;
69081;SDS011;69029;51.986;5.760;2023-07-22T09:10:34;11.85;;;5.80;;
69081;SDS011;69029;51.986;5.760;2023-07-22T09:13:00;10.07;;;5.90;;
69081;SDS011;69029;51.986;5.760;2023-07-22T09:15:27;11.60;;;6.65;;
69081;SDS011;69029;51.986;5.760;2023-07-22T09:17:53;14.55;;;6.50;;
69081;SDS011;69029;51.986;5.760;2023-07-22T09:20:19;10.70;;;6.13;;
69081;SDS011;69029;51.986;5.760;2023-07-22T09:22:46;11.10;;;5.75;;
69081;SDS011;69029;51.986;5.760;2023-07-22T09:25:13;11.63;;;6.30;;
69081;SDS011;69029;51.986;5.760;2023-07-22T09:27:43;10.45;;;5.72;;
69081;SDS011;69029;51.986;5.760;2023-07-22T09:32:59;11.40;;;5.70;;
69081;SDS011;69029;51.986;5.760;2023-07-22T09:35:49;11.82;;;5.80;;
69081;SDS011;69029;51.986;5.760;2023-07-22T09:38:25;15.00;;;5.68;;
69081;SDS011;69029;51.986;5.760;2023-07-22T09:40:51;10.27;;;5.30;;
69081;SDS011;69029;51.986;5.760;2023-07-22T09:43:17;7.22;;;4.63;;
69081;SDS011;69029;51.986;5.760;2023-07-22T09:45:46;9.00;;;4.95;;
69081;SDS011;69029;51.986;5.760;2023-07-22T09:48:12;8.90;;;4.97;;
69081;SDS011;69029;51.986;5.760;2023-07-22T09:50:38;12.00;;;5.63;;
69081;SDS011;69029;51.986;5.760;2023-07-22T09:53:04;11.13;;;5.28;;
69081;SDS011;69029;51.986;5.760;2023-07-22T09:55:30;10.43;;;4.70;;
69081;SDS011;69029;51.986;5.760;2023-07-22T09:58:04;9.93;;;4.82;;
69081;SDS011;69029;51.986;5.760;2023-07-22T10:00:36;8.70;;;4.30;;
69081;SDS011;69029;51.986;5.760;2023-07-22T10:03:02;9.43;;;4.53;;
69081;SDS011;69029;51.986;5.760;2023-07-22T10:05:34;9.00;;;4.63;;
69081;SDS011;69029;51.986;5.760;2023-07-22T10:08:01;10.30;;;5.35;;
69081;SDS011;69029;51.986;5.760;2023-07-22T10:10:31;10.65;;;4.95;;
69081;SDS011;69029;51.986;5.760;2023-07-22T10:12:57;8.90;;;5.03;;
69081;SDS011;69029;51.986;5.760;2023-07-22T10:15:28;9.10;;;4.65;;
69081;SDS011;69029;51.986;5.760;2023-07-22T10:17:55;7.65;;;4.13;;
69081;SDS011;69029;51.986;5.760;2023-07-22T10:20:21;7.70;;;4.13;;
69081;SDS011;69029;51.986;5.760;2023-07-22T10:22:48;10.25;;;4.40;;
69081;SDS011;69029;51.986;5.760;2023-07-22T10:25:15;9.60;;;4.80;;
69081;SDS011;69029;51.986;5.760;2023-07-22T10:27:42;9.35;;;4.90;;
69081;SDS011;69029;51.986;5.760;2023-07-22T10:30:09;11.65;;;5.00;;
69081;SDS011;69029;51.986;5.760;2023-07-22T10:32:38;7.25;;;4.40;;
69081;SDS011;69029;51.986;5.760;2023-07-22T10:40:26;5.82;;;2.72;;
69081;SDS011;69029;51.986;5.760;2023-07-22T10:42:54;2.90;;;2.35;;
69081;SDS011;69029;51.986;5.760;2023-07-22T12:43:52;2.40;;;2.03;;
69081;SDS011;69029;51.986;5.760;2023-07-22T12:46:17;10.40;;;2.00;;
69081;SDS011;69029;51.986;5.760;2023-07-22T12:48:43;10.02;;;2.00;;
69081;SDS011;69029;51.986;5.760;2023-07-22T12:51:09;9.07;;;2.05;;
69081;SDS011;69029;51.986;5.760;2023-07-22T12:53:34;3.38;;;2.00;;
69081;SDS011;69029;51.986;5.760;2023-07-22T12:56:00;3.00;;;1.77;;
69081;SDS011;69029;51.986;5.760;2023-07-22T12:58:28;6.82;;;2.00;;
69081;SDS011;69029;51.986;5.760;2023-07-22T13:00:54;2.65;;;2.00;;
69081;SDS011;69029;51.986;5.760;2023-07-22T13:03:20;3.65;;;1.80;;
69081;SDS011;69029;51.986;5.760;2023-07-22T13:05:45;2.47;;;1.90;;
69081;SDS011;69029;51.986;5.760;2023-07-22T13:08:11;2.60;;;1.75;;
69081;SDS011;69029;51.986;5.760;2023-07-22T13:10:37;4.78;;;2.00;;
69081;SDS011;69029;51.986;5.760;2023-07-22T13:13:04;7.82;;;1.80;;
69081;SDS011;69029;51.986;5.760;2023-07-22T13:15:30;2.38;;;1.60;;
69081;SDS011;69029;51.986;5.760;2023-07-22T13:17:56;3.63;;;1.80;;
69081;SDS011;69029;51.986;5.760;2023-07-22T13:20:23;2.65;;;1.77;;
69081;SDS011;69029;51.986;5.760;2023-07-22T13:22:49;1.88;;;1.67;;
69081;SDS011;69029;51.986;5.760;2023-07-22T13:25:15;8.40;;;1.90;;
69081;SDS011;69029;51.986;5.760;2023-07-22T13:27:41;3.33;;;2.10;;
69081;SDS011;69029;51.986;5.760;2023-07-22T13:30:07;2.00;;;1.73;;
69081;SDS011;69029;51.986;5.760;2023-07-22T13:32:33;3.17;;;1.75;;
69081;SDS011;69029;51.986;5.760;2023-07-22T13:34:59;2.40;;;1.90;;
69081;SDS011;69029;51.986;5.760;2023-07-22T13:37:25;2.38;;;1.80;;
69081;SDS011;69029;51.986;5.760;2023-07-22T13:39:51;4.00;;;1.90;;
69081;SDS011;69029;51.986;5.760;2023-07-22T13:42:18;3.17;;;1.80;;
69081;SDS011;69029;51.986;5.760;2023-07-22T13:44:44;2.60;;;1.70;;
69081;SDS011;69029;51.986;5.760;2023-07-22T13:47:09;1.70;;;1.60;;
69081;SDS011;69029;51.986;5.760;2023-07-22T13:49:35;2.58;;;1.67;;
69081;SDS011;69029;51.986;5.760;2023-07-22T13:52:01;3.08;;;1.90;;
69081;SDS011;69029;51.986;5.760;2023-07-22T13:54:27;4.30;;;1.70;;
69081;SDS011;69029;51.986;5.760;2023-07-22T13:56:53;1.60;;;1.50;;
69081;SDS011;69029;51.986;5.760;2023-07-22T13:59:18;3.15;;;1.80;;
69081;SDS011;69029;51.986;5.760;2023-07-22T14:01:44;2.83;;;1.73;;
69081;SDS011;69029;51.986;5.760;2023-07-22T14:04:10;3.45;;;1.90;;
69081;SDS011;69029;51.986;5.760;2023-07-22T14:06:35;4.07;;;1.70;;
69081;SDS011;69029;51.986;5.760;2023-07-22T14:09:01;2.70;;;1.95;;
69081;SDS011;69029;51.986;5.760;2023-07-22T14:11:29;2.75;;;1.80;;
69081;SDS011;69029;51.986;5.760;2023-07-22T14:13:55;4.50;;;1.60;;
69081;SDS011;69029;51.986;5.760;2023-07-22T14:16:21;2.47;;;1.70;;
69081;SDS011;69029;51.986;5.760;2023-07-22T14:18:47;2.83;;;1.75;;
69081;SDS011;69029;51.986;5.760;2023-07-22T14:21:13;1.63;;;1.40;;
69081;SDS011;69029;51.986;5.760;2023-07-22T14:23:39;2.25;;;1.55;;
69081;SDS011;69029;51.986;5.760;2023-07-22T14:26:04;2.78;;;1.50;;
69081;SDS011;69029;51.986;5.760;2023-07-22T14:28:30;2.67;;;1.52;;
69081;SDS011;69029;51.986;5.760;2023-07-22T14:30:55;1.92;;;1.60;;
69081;SDS011;69029;51.986;5.760;2023-07-22T14:33:21;3.22;;;1.92;;
69081;SDS011;69029;51.986;5.760;2023-07-22T14:35:47;2.85;;;1.80;;
69081;SDS011;69029;51.986;5.760;2023-07-22T14:38:13;3.95;;;1.65;;
69081;SDS011;69029;51.986;5.760;2023-07-22T14:40:38;1.50;;;1.40;;
69081;SDS011;69029;51.986;5.760;2023-07-22T14:43:04;3.78;;;2.00;;
69081;SDS011;69029;51.986;5.760;2023-07-22T14:45:30;2.05;;;1.50;;
69081;SDS011;69029;51.986;5.760;2023-07-22T14:47:55;2.45;;;1.45;;
69081;SDS011;69029;51.986;5.760;2023-07-22T14:50:21;2.42;;;1.70;;
69081;SDS011;69029;51.986;5.760;2023-07-22T14:52:47;5.70;;;1.60;;
69081;SDS011;69029;51.986;5.760;2023-07-22T14:55:12;2.45;;;1.50;;
69081;SDS011;69029;51.986;5.760;2023-07-22T14:57:38;2.17;;;1.63;;
69081;SDS011;69029;51.986;5.760;2023-07-22T15:00:05;2.53;;;1.50;;
69081;SDS011;69029;51.986;5.760;2023-07-22T15:02:31;1.75;;;1.40;;
69081;SDS011;69029;51.986;5.760;2023-07-22T15:04:58;2.20;;;1.60;;
69081;SDS011;69029;51.986;5.760;2023-07-22T15:07:23;2.17;;;1.50;;
69081;SDS011;69029;51.986;5.760;2023-07-22T15:09:49;1.88;;;1.50;;
69081;SDS011;69029;51.986;5.760;2023-07-22T15:12:16;2.10;;;1.50;;
69081;SDS011;69029;51.986;5.760;2023-07-22T15:14:43;2.20;;;1.60;;
69081;SDS011;69029;51.986;5.760;2023-07-22T15:17:09;3.47;;;1.63;;
69081;SDS011;69029;51.986;5.760;2023-07-22T15:19:34;1.67;;;1.40;;
69081;SDS011;69029;51.986;5.760;2023-07-22T15:22:00;2.03;;;1.42;;
69081;SDS011;69029;51.986;5.760;2023-07-22T15:24:26;1.67;;;1.45;;
69081;SDS011;69029;51.986;5.760;2023-07-22T15:26:52;2.00;;;1.40;;
69081;SDS011;69029;51.986;5.760;2023-07-22T15:29:18;1.75;;;1.20;;
69081;SDS011;69029;51.986;5.760;2023-07-22T15:31:43;3.45;;;1.42;;
69081;SDS011;69029;51.986;5.760;2023-07-22T15:34:09;3.60;;;1.50;;
69081;SDS011;69029;51.986;5.760;2023-07-22T15:36:34;2.97;;;1.60;;
69081;SDS011;69029;51.986;5.760;2023-07-22T15:39:00;1.65;;;1.50;;
69081;SDS011;69029;51.986;5.760;2023-07-22T15:41:26;2.35;;;1.40;;
69081;SDS011;69029;51.986;5.760;2023-07-22T15:43:51;3.75;;;1.38;;
69081;SDS011;69029;51.986;5.760;2023-07-22T15:46:17;2.33;;;1.50;;
69081;SDS011;69029;51.986;5.760;2023-07-22T15:48:42;2.10;;;1.45;;
69081;SDS011;69029;51.986;5.760;2023-07-22T15:51:08;5.95;;;1.50;;
69081;SDS011;69029;51.986;5.760;2023-07-22T15:53:34;2.97;;;1.40;;
69081;SDS011;69029;51.986;5.760;2023-07-22T15:56:00;1.52;;;1.30;;
69081;SDS011;69029;51.986;5.760;2023-07-22T15:58:26;1.30;;;1.20;;
69081;SDS011;69029;51.986;5.760;2023-07-22T16:00:52;1.30;;;1.20;;
69081;SDS011;69029;51.986;5.760;2023-07-22T16:03:18;1.98;;;1.20;;
69081;SDS011;69029;51.986;5.760;2023-07-22T16:05:44;3.83;;;1.40;;
69081;SDS011;69029;51.986;5.760;2023-07-22T16:08:10;8.65;;;1.50;;
69081;SDS011;69029;51.986;5.760;2023-07-22T16:10:36;9.63;;;1.45;;
69081;SDS011;69029;51.986;5.760;2023-07-22T16:13:02;4.70;;;1.60;;
69081;SDS011;69029;51.986;5.760;2023-07-22T16:15:28;6.63;;;1.40;;
69081;SDS011;69029;51.986;5.760;2023-07-22T16:17:59;4.63;;;1.70;;
69081;SDS011;69029;51.986;5.760;2023-07-22T16:20:25;4.72;;;1.50;;
69081;SDS011;69029;51.986;5.760;2023-07-22T16:22:51;2.40;;;1.10;;
69081;SDS011;69029;51.986;5.760;2023-07-22T16:25:16;1.98;;;1.45;;
69081;SDS011;69029;51.986;5.760;2023-07-22T16:27:42;4.70;;;1.25;;
69081;SDS011;69029;51.986;5.760;2023-07-22T16:30:08;2.55;;;1.33;;
69081;SDS011;69029;51.986;5.760;2023-07-22T16:32:34;2.17;;;1.50;;
69081;SDS011;69029;51.986;5.760;2023-07-22T16:35:00;2.53;;;1.40;;
69081;SDS011;69029;51.986;5.760;2023-07-22T16:37:25;8.43;;;1.63;;